Dukhan — A7LL — position and weather

sailwx.info

Track history (hours):
 
Tides and Currents Weather Stations Pressure Air Temp Water Temp Dewpoint Dewpoint Depression Visibility Wind Speed Wind Dir Waves Ship Positions

Dukhan

Last reported at 2018-Jan-12 11:08 UTC. Time now 2018-Jan-18 15:46 UTC.
Position N 25°17' W 079°33'.

Length 176 m; draft 7.5 m.

Type: Tanker. MMSI: 466217000.

Date/timePositionNaut miles runAvg speedWind from/ knotsBaromVisibWave heightAir tempDewpointWater temp
2018-Jan-12 11:08N 25°17' W 079°33'611.5
2018-Jan-12 10:34N 25°23' W 079°31'111.5
2018-Jan-12 10:30N 25°24' W 079°31'611.4
2018-Jan-12 10:00N 25°29' W 079°30'611.2
2018-Jan-12 09:30N 25°35' W 079°29'611.1
2018-Jan-12 09:00N 25°40' W 079°28'611.3
2018-Jan-12 08:30N 25°46' W 079°27'611.6
2018-Jan-12 08:00N 25°51' W 079°26'611.7
2018-Jan-12 07:30N 25°57' W 079°25'611.8
2018-Jan-12 07:00N 26°03' W 079°23'1011.4
2018-Jan-12 06:10N 26°12' W 079°22'  
Track history (hours):
 
Tides and Currents Weather Stations Pressure Air Temp Water Temp Dewpoint Dewpoint Depression Visibility Wind Speed Wind Dir Waves Ship Positions

Dukhan

Last reported at 2018-Jan-12 11:08 UTC. Time now 2018-Jan-18 15:46 UTC.
Position N 25°17' W 079°33'.

Length 176 m; draft 7.5 m.

Type: Tanker. MMSI: 466217000.

Date/timePositionNaut miles runAvg speedWind from/ knotsBaromVisibWave heightAir tempDewpointWater temp
2018-Jan-12 11:08N 25°17' W 079°33'611.5
2018-Jan-12 10:34N 25°23' W 079°31'111.5
2018-Jan-12 10:30N 25°24' W 079°31'611.4
2018-Jan-12 10:00N 25°29' W 079°30'611.2
2018-Jan-12 09:30N 25°35' W 079°29'611.1
2018-Jan-12 09:00N 25°40' W 079°28'611.3
2018-Jan-12 08:30N 25°46' W 079°27'611.6
2018-Jan-12 08:00N 25°51' W 079°26'611.7
2018-Jan-12 07:30N 25°57' W 079°25'611.8
2018-Jan-12 07:00N 26°03' W 079°23'1011.4
2018-Jan-12 06:10N 26°12' W 079°22'  

Dump ship's entire track history